Check out our new BloomSky Weather System.

Active alerts


No alerts


Thunder radar  blitzortung!


Rain radar more information rain snow radar


Visit our other weather sites:

Template documentation
and downloads

And another site



Weather Underground History page Text

Daily Summary for November 25, 2017 Units:  English    Metric   Both
« Previous Day
Next Day »
Daily Weekly Monthly Yearly Custom
  High: Low: Average:
Temperature: 81.9 °F 47.1 °F 63.6 °F
Dew Point: 64.9 °F 45.7 °F 56.4 °F
Humidity: 98 % 50 % 80 %
Wind Speed: 8.0 mph 0.0 mph 0.9 mph
Wind Gust: 9.0 mph - -
Wind:- - SSE
Pressure: 30.13 in 29.90 in -
Precipitation: 0.00 in    
Historical Graphs
 
 
Tabular Data for November 25, 2017
Time Temperature Dew Point Pressure Wind Wind Speed Wind Gust Humidity Rainfall Rate (Hourly)
00:01 51.4 °F 47.7 °F 29.91 in Calm     87 % 0.00 in
00:06 51.6 °F 47.8 °F 29.90 in Calm     87 % 0.00 in
00:11 51.4 °F 47.7 °F 29.90 in Calm     87 % 0.00 in
00:16 51.4 °F 47.7 °F 29.90 in Calm     87 % 0.00 in
00:21 51.3 °F 47.8 °F 29.90 in Calm     88 % 0.00 in
00:26 51.4 °F 48.0 °F 29.90 in Calm     88 % 0.00 in
00:31 51.4 °F 48.0 °F 29.90 in Calm     88 % 0.00 in
00:36 51.4 °F 47.7 °F 29.90 in Calm     87 % 0.00 in
00:41 51.3 °F 47.5 °F 29.91 in Calm     87 % 0.00 in
00:46 51.1 °F 47.7 °F 29.91 in Calm     88 % 0.00 in
00:51 50.7 °F 47.3 °F 29.90 in Calm     88 % 0.00 in
00:56 50.7 °F 47.3 °F 29.91 in Calm     88 % 0.00 in
01:01 50.5 °F 47.5 °F 29.91 in Calm     89 % 0.00 in
01:06 50.5 °F 47.5 °F 29.91 in Calm     89 % 0.00 in
01:11 50.4 °F 47.3 °F 29.90 in Calm     89 % 0.00 in
01:16 50.2 °F 47.1 °F 29.91 in Calm     89 % 0.00 in
01:21 50.0 °F 46.9 °F 29.91 in Calm     89 % 0.00 in
01:26 49.6 °F 46.6 °F 29.91 in Calm     89 % 0.00 in
01:31 49.5 °F 46.6 °F 29.91 in Calm     90 % 0.00 in
01:36 49.5 °F 46.6 °F 29.91 in Calm     90 % 0.00 in
01:41 49.3 °F 46.8 °F 29.91 in Calm     91 % 0.00 in
01:46 49.1 °F 46.6 °F 29.91 in Calm     91 % 0.00 in
01:51 48.9 °F 46.4 °F 29.90 in Calm     91 % 0.00 in
01:56 48.9 °F 46.8 °F 29.91 in Calm     92 % 0.00 in
02:01 48.9 °F 46.8 °F 29.91 in Calm     92 % 0.00 in
02:07 48.9 °F 46.8 °F 29.91 in Calm     92 % 0.00 in
02:12 48.7 °F 46.6 °F 29.91 in Calm     92 % 0.00 in
02:17 48.7 °F 46.6 °F 29.91 in Calm     92 % 0.00 in
02:22 48.7 °F 46.6 °F 29.91 in Calm     92 % 0.00 in
02:27 48.7 °F 46.6 °F 29.91 in Calm     92 % 0.00 in
02:32 48.6 °F 46.4 °F 29.91 in Calm     92 % 0.00 in
02:37 48.4 °F 46.2 °F 29.91 in Calm     92 % 0.00 in
02:42 48.4 °F 46.4 °F 29.92 in Calm     93 % 0.00 in
02:47 48.6 °F 46.6 °F 29.92 in Calm     93 % 0.00 in
02:52 48.6 °F 46.6 °F 29.92 in Calm     93 % 0.00 in
02:57 48.4 °F 46.2 °F 29.92 in Calm     92 % 0.00 in
03:02 48.2 °F 46.2 °F 29.92 in Calm     93 % 0.00 in
03:07 48.2 °F 46.2 °F 29.93 in Calm     93 % 0.00 in
03:12 48.0 °F 46.0 °F 29.92 in Calm     93 % 0.00 in
03:17 48.0 °F 46.0 °F 29.92 in Calm     93 % 0.00 in
03:22 47.8 °F 45.9 °F 29.92 in Calm     93 % 0.00 in
03:27 48.0 °F 46.4 °F 29.92 in Calm     94 % 0.00 in
03:32 48.0 °F 46.4 °F 29.92 in Calm     94 % 0.00 in
03:37 48.0 °F 46.4 °F 29.92 in Calm     94 % 0.00 in
03:42 47.8 °F 46.2 °F 29.92 in Calm     94 % 0.00 in
03:47 47.8 °F 46.2 °F 29.92 in Calm     94 % 0.00 in
03:52 47.8 °F 46.2 °F 29.92 in Calm     94 % 0.00 in
03:57 47.7 °F 46.0 °F 29.93 in Calm     94 % 0.00 in
04:02 47.7 °F 46.0 °F 29.92 in Calm     94 % 0.00 in
04:07 47.7 °F 46.0 °F 29.92 in Calm     94 % 0.00 in
04:12 47.7 °F 46.0 °F 29.92 in Calm     94 % 0.00 in
04:17 47.8 °F 46.4 °F 29.92 in Calm     95 % 0.00 in
04:22 47.7 °F 46.2 °F 29.92 in Calm     95 % 0.00 in
04:23 47.8 °F 46.4 °F 29.92 in Calm     95 % 0.00 in
04:28 47.7 °F 46.2 °F 29.92 in Calm     95 % 0.00 in
04:33 47.8 °F 46.4 °F 29.92 in Calm     95 % 0.00 in
04:38 47.7 °F 46.2 °F 29.92 in Calm     95 % 0.00 in
04:43 47.7 °F 46.2 °F 29.92 in Calm     95 % 0.00 in
04:48 47.7 °F 46.2 °F 29.91 in Calm     95 % 0.00 in
04:53 47.5 °F 46.0 °F 29.92 in Calm     95 % 0.00 in
04:58 47.5 °F 46.0 °F 29.92 in Calm     95 % 0.00 in
05:03 47.5 °F 46.0 °F 29.91 in Calm     95 % 0.00 in
05:08 47.1 °F 45.7 °F 29.91 in Calm     95 % 0.00 in
05:13 47.1 °F 45.7 °F 29.91 in Calm     95 % 0.00 in
05:18 47.5 °F 46.4 °F 29.91 in Calm     96 % 0.00 in
05:23 47.8 °F 46.8 °F 29.91 in Calm     96 % 0.00 in
05:28 48.0 °F 46.9 °F 29.92 in Calm     96 % 0.00 in
05:33 48.0 °F 46.9 °F 29.92 in Calm     96 % 0.00 in
05:38 48.0 °F 46.9 °F 29.92 in Calm     96 % 0.00 in
05:43 48.0 °F 46.9 °F 29.92 in Calm     96 % 0.00 in
05:48 47.8 °F 46.8 °F 29.92 in Calm     96 % 0.00 in
05:53 48.0 °F 46.9 °F 29.92 in Calm     96 % 0.00 in
05:54 48.0 °F 46.9 °F 29.92 in Calm     96 % 0.00 in
05:59 48.0 °F 46.9 °F 29.92 in Calm     96 % 0.00 in
06:00 48.0 °F 46.9 °F 29.92 in Calm     96 % 0.00 in
06:05 48.0 °F 46.9 °F 29.92 in Calm     96 % 0.00 in
06:10 47.8 °F 46.8 °F 29.92 in Calm     96 % 0.00 in
06:15 47.7 °F 46.6 °F 29.92 in Calm     96 % 0.00 in
06:20 47.3 °F 46.2 °F 29.92 in Calm     96 % 0.00 in
06:25 47.5 °F 46.4 °F 29.92 in Calm     96 % 0.00 in
06:30 47.7 °F 46.9 °F 29.93 in Calm     97 % 0.00 in
06:35 47.7 °F 46.6 °F 29.93 in Calm     96 % 0.00 in
06:40 47.8 °F 46.9 °F 29.93 in Calm     97 % 0.00 in
06:45 47.8 °F 46.9 °F 29.93 in Calm     97 % 0.00 in
06:50 47.8 °F 46.9 °F 29.94 in Calm     97 % 0.00 in
06:55 47.8 °F 46.9 °F 29.94 in Calm     97 % 0.00 in
07:00 48.0 °F 47.1 °F 29.94 in Calm     97 % 0.00 in
07:05 48.0 °F 47.1 °F 29.94 in Calm     97 % 0.00 in
07:10 48.0 °F 47.1 °F 29.94 in Calm     97 % 0.00 in
07:15 48.0 °F 47.1 °F 29.94 in Calm     97 % 0.00 in
07:20 48.4 °F 47.5 °F 29.94 in Calm     97 % 0.00 in
07:25 48.6 °F 47.7 °F 29.94 in Calm     97 % 0.00 in
07:30 49.1 °F 48.2 °F 29.95 in Calm     97 % 0.00 in
07:35 49.6 °F 49.1 °F 29.95 in Calm   1.0 mph 98 % 0.00 in
07:40 50.5 °F 50.0 °F 29.96 in Calm   1.0 mph 98 % 0.00 in
07:42 50.7 °F 50.2 °F 29.96 in Calm   1.0 mph 98 % 0.00 in
07:47 51.6 °F 51.1 °F 29.96 in Calm   1.0 mph 98 % 0.00 in
07:52 52.3 °F 51.8 °F 29.96 in Calm   1.0 mph 98 % 0.00 in
07:57 54.0 °F 53.4 °F 29.96 in Calm   1.0 mph 98 % 0.00 in
08:02 55.4 °F 54.9 °F 29.96 in Calm   1.0 mph 98 % 0.00 in
08:07 55.9 °F 55.0 °F 29.96 in Calm   1.0 mph 97 % 0.00 in
08:12 56.7 °F 55.6 °F 29.97 in Calm   1.0 mph 96 % 0.00 in
08:17 57.7 °F 56.3 °F 29.97 in Calm   1.0 mph 95 % 0.00 in
08:22 58.6 °F 56.8 °F 29.97 in Calm   1.0 mph 94 % 0.00 in
08:27 59.5 °F 57.6 °F 29.97 in Calm   1.0 mph 93 % 0.00 in
08:32 60.6 °F 57.7 °F 29.97 in Calm   1.0 mph 90 % 0.00 in
08:42 63.0 °F 58.5 °F 29.98 in Calm   1.0 mph 85 % 0.00 in
08:47 64.0 °F 58.8 °F 29.98 in ESE 2.0 mph 2.0 mph 83 % 0.00 in
08:52 64.4 °F 59.2 °F 29.98 in SE 1.0 mph 2.0 mph 83 % 0.00 in
08:57 64.6 °F 59.0 °F 29.98 in Calm   3.0 mph 82 % 0.00 in
09:02 64.9 °F 59.7 °F 29.98 in SSE 1.0 mph 3.0 mph 83 % 0.00 in
09:07 65.7 °F 60.1 °F 29.98 in Calm   3.0 mph 82 % 0.00 in
09:12 66.6 °F 60.3 °F 29.99 in SE 1.0 mph 3.0 mph 80 % 0.00 in
09:17 67.1 °F 60.8 °F 29.99 in Calm   3.0 mph 80 % 0.00 in
09:22 67.8 °F 61.0 °F 29.99 in SSE 1.0 mph 3.0 mph 79 % 0.00 in
09:27 68.5 °F 61.7 °F 29.99 in SE 2.0 mph 3.0 mph 79 % 0.00 in
09:32 69.3 °F 61.7 °F 30.00 in South 1.0 mph 3.0 mph 77 % 0.00 in
09:37 69.8 °F 61.9 °F 30.00 in SSE 2.0 mph 4.0 mph 76 % 0.00 in
09:47 71.1 °F 62.8 °F 30.00 in South 2.0 mph 5.0 mph 75 % 0.00 in
09:52 71.8 °F 63.0 °F 30.00 in SSE 1.0 mph 5.0 mph 74 % 0.00 in
09:57 72.3 °F 63.5 °F 30.00 in SE 2.0 mph 4.0 mph 74 % 0.00 in
10:02 72.7 °F 63.1 °F 30.00 in SE 4.0 mph 5.0 mph 72 % 0.00 in
10:07 72.9 °F 63.7 °F 30.00 in South 2.0 mph 5.0 mph 73 % 0.00 in
10:12 73.2 °F 63.3 °F 30.00 in SSW 6.0 mph 6.0 mph 71 % 0.00 in
10:17 73.6 °F 63.7 °F 30.01 in South 3.0 mph 7.0 mph 71 % 0.00 in
10:22 73.9 °F 63.9 °F 30.01 in SSE 5.0 mph 7.0 mph 71 % 0.00 in
10:27 74.5 °F 64.4 °F 30.00 in SSW 3.0 mph 7.0 mph 71 % 0.00 in
10:32 74.7 °F 63.9 °F 30.00 in SSW 4.0 mph 7.0 mph 69 % 0.00 in
10:37 74.7 °F 63.3 °F 30.00 in SE 1.0 mph 9.0 mph 68 % 0.00 in
10:42 74.8 °F 64.0 °F 30.00 in South 5.0 mph 9.0 mph 69 % 0.00 in
10:47 74.8 °F 64.0 °F 30.00 in SSE 3.0 mph 9.0 mph 69 % 0.00 in
10:52 75.0 °F 63.7 °F 29.99 in SE 3.0 mph 7.0 mph 68 % 0.00 in
10:57 75.6 °F 64.2 °F 29.99 in SSE 6.0 mph 7.0 mph 68 % 0.00 in
11:02 75.7 °F 64.4 °F 29.99 in SSW 6.0 mph 8.0 mph 68 % 0.00 in
11:07 75.9 °F 64.2 °F 29.99 in SSE 8.0 mph 8.0 mph 67 % 0.00 in
11:12 76.3 °F 64.0 °F 29.99 in SE 2.0 mph 9.0 mph 66 % 0.00 in
11:17 76.8 °F 64.9 °F 29.99 in Calm   9.0 mph 67 % 0.00 in
11:19 77.2 °F 64.9 °F 29.99 in SE 6.0 mph 9.0 mph 66 % 0.00 in
11:24 77.4 °F 64.8 °F 29.99 in SSW 6.0 mph 9.0 mph 65 % 0.00 in
11:29 77.5 °F 64.8 °F 29.99 in Calm   7.0 mph 65 % 0.00 in
11:34 78.3 °F 64.2 °F 29.99 in SSW 5.0 mph 7.0 mph 62 % 0.00 in
11:39 77.7 °F 64.6 °F 29.99 in WSW 5.0 mph 7.0 mph 64 % 0.00 in
11:44 77.7 °F 63.7 °F 29.99 in SSW 4.0 mph 8.0 mph 62 % 0.00 in
11:45 77.7 °F 64.0 °F 29.99 in South 4.0 mph 8.0 mph 63 % 0.00 in
11:50 77.7 °F 64.0 °F 29.99 in SSE 2.0 mph 8.0 mph 63 % 0.00 in
11:55 78.6 °F 64.6 °F 29.98 in SW 2.0 mph 7.0 mph 62 % 0.00 in
12:00 79.0 °F 63.9 °F 29.99 in SSW 3.0 mph 7.0 mph 60 % 0.00 in
12:05 78.3 °F 64.2 °F 29.98 in SSW 3.0 mph 7.0 mph 62 % 0.00 in
12:10 78.4 °F 63.9 °F 29.98 in SSE 2.0 mph 7.0 mph 61 % 0.00 in
12:15 78.8 °F 64.8 °F 29.98 in SSE 3.0 mph 6.0 mph 62 % 0.00 in
12:20 78.6 °F 63.5 °F 29.98 in SSW 4.0 mph 5.0 mph 60 % 0.00 in
12:25 77.7 °F 62.8 °F 29.98 in Calm   6.0 mph 60 % 0.00 in
12:30 77.9 °F 63.3 °F 29.98 in East 2.0 mph 6.0 mph 61 % 0.00 in
12:35 78.8 °F 64.8 °F 29.97 in Calm   6.0 mph 62 % 0.00 in
12:40 79.9 °F 64.8 °F 29.97 in SSW 4.0 mph 5.0 mph 60 % 0.00 in
12:45 79.5 °F 63.5 °F 29.97 in SW 3.0 mph 6.0 mph 58 % 0.00 in
12:50 78.8 °F 62.8 °F 29.97 in ESE 1.0 mph 6.0 mph 58 % 0.00 in
12:55 79.0 °F 63.5 °F 29.96 in SE 2.0 mph 6.0 mph 59 % 0.00 in
13:00 78.6 °F 62.1 °F 29.96 in South 2.0 mph 6.0 mph 57 % 0.00 in
13:01 78.6 °F 62.6 °F 29.96 in SSW 1.0 mph 6.0 mph 58 % 0.00 in
13:06 79.0 °F 62.4 °F 29.96 in ESE 1.0 mph 6.0 mph 57 % 0.00 in
13:11 79.2 °F 62.1 °F 29.96 in SE 4.0 mph 6.0 mph 56 % 0.00 in
13:16 79.0 °F 63.5 °F 29.96 in SSE 4.0 mph 6.0 mph 59 % 0.00 in
13:21 79.2 °F 63.1 °F 29.96 in SSE 1.0 mph 6.0 mph 58 % 0.00 in
13:26 79.9 °F 63.9 °F 29.96 in ESE 2.0 mph 6.0 mph 58 % 0.00 in
13:31 80.2 °F 64.0 °F 29.95 in Calm   6.0 mph 58 % 0.00 in
13:36 80.8 °F 62.6 °F 29.95 in SSW 3.0 mph 6.0 mph 54 % 0.00 in
13:41 81.0 °F 62.8 °F 29.96 in SSW 4.0 mph 5.0 mph 54 % 0.00 in
13:42 80.8 °F 61.5 °F 29.96 in South 3.0 mph 5.0 mph 52 % 0.00 in
13:47 80.6 °F 61.3 °F 29.96 in ESE 4.0 mph 6.0 mph 52 % 0.00 in
13:52 80.6 °F 61.3 °F 29.96 in SSE 1.0 mph 6.0 mph 52 % 0.00 in
13:57 80.8 °F 62.1 °F 29.95 in ESE 2.0 mph 6.0 mph 53 % 0.00 in
14:02 80.6 °F 61.9 °F 29.95 in East 6.0 mph 7.0 mph 53 % 0.00 in
14:07 80.2 °F 62.1 °F 29.95 in SE 1.0 mph 7.0 mph 54 % 0.00 in
14:12 80.6 °F 62.4 °F 29.95 in South 3.0 mph 7.0 mph 54 % 0.00 in
14:17 81.1 °F 62.4 °F 29.95 in SW 5.0 mph 7.0 mph 53 % 0.00 in
14:22 81.1 °F 61.3 °F 29.95 in NW 2.0 mph 5.0 mph 51 % 0.00 in
14:27 81.7 °F 61.9 °F 29.95 in SE 1.0 mph 5.0 mph 51 % 0.00 in
14:32 81.9 °F 61.9 °F 29.95 in SSE 5.0 mph 6.0 mph 51 % 0.00 in
14:37 81.3 °F 61.5 °F 29.94 in Calm   7.0 mph 51 % 0.00 in
14:47 80.6 °F 60.8 °F 29.94 in Calm   7.0 mph 51 % 0.00 in
14:52 80.4 °F 61.2 °F 29.95 in SE 2.0 mph 6.0 mph 52 % 0.00 in
14:57 80.8 °F 61.5 °F 29.94 in South 3.0 mph 6.0 mph 52 % 0.00 in
15:02 81.0 °F 60.6 °F 29.94 in East 4.0 mph 4.0 mph 50 % 0.00 in
15:07 81.0 °F 60.6 °F 29.95 in SE 1.0 mph 6.0 mph 50 % 0.00 in
15:12 80.8 °F 60.4 °F 29.95 in Calm   6.0 mph 50 % 0.00 in
15:17 81.0 °F 61.2 °F 29.95 in SSE 3.0 mph 6.0 mph 51 % 0.00 in
15:22 81.0 °F 60.6 °F 29.95 in Calm   4.0 mph 50 % 0.00 in
15:32 81.0 °F 60.6 °F 29.96 in NNW 1.0 mph 4.0 mph 50 % 0.00 in
15:37 81.0 °F 60.6 °F 29.96 in ESE 1.0 mph 3.0 mph 50 % 0.00 in
15:42 80.8 °F 61.0 °F 29.96 in Calm   3.0 mph 51 % 0.00 in
15:47 81.0 °F 60.6 °F 29.95 in ESE 2.0 mph 3.0 mph 50 % 0.00 in
15:52 80.8 °F 61.0 °F 29.96 in SE 1.0 mph 3.0 mph 51 % 0.00 in
15:57 80.4 °F 60.6 °F 29.96 in Calm   3.0 mph 51 % 0.00 in
16:02 80.1 °F 60.8 °F 29.96 in ESE 4.0 mph 4.0 mph 52 % 0.00 in
16:17 79.0 °F 61.0 °F 29.97 in SE 2.0 mph 5.0 mph 54 % 0.00 in
16:22 78.6 °F 61.2 °F 29.97 in SSE 2.0 mph 5.0 mph 55 % 0.00 in
16:27 78.3 °F 61.7 °F 29.97 in Calm   5.0 mph 57 % 0.00 in
16:32 77.7 °F 61.7 °F 29.97 in Calm   5.0 mph 58 % 0.00 in
16:38 77.5 °F 62.1 °F 29.97 in East 5.0 mph 5.0 mph 59 % 0.00 in
16:43 77.2 °F 62.2 °F 29.97 in Calm   5.0 mph 60 % 0.00 in
16:47 76.6 °F 61.7 °F 29.97 in ESE 1.0 mph 6.0 mph 60 % 0.00 in
16:52 76.3 °F 61.9 °F 29.98 in NW 1.0 mph 6.0 mph 61 % 0.00 in
16:58 75.9 °F 61.9 °F 29.98 in East 2.0 mph 6.0 mph 62 % 0.00 in
17:01 75.7 °F 62.2 °F 29.98 in East 1.0 mph 5.0 mph 63 % 0.00 in
17:06 75.6 °F 62.1 °F 29.99 in Calm   5.0 mph 63 % 0.00 in
17:11 75.4 °F 62.4 °F 29.99 in Calm   5.0 mph 64 % 0.00 in
17:16 74.8 °F 62.2 °F 29.99 in SE 1.0 mph 5.0 mph 65 % 0.00 in
17:21 74.7 °F 62.6 °F 30.00 in East 2.0 mph 3.0 mph 66 % 0.00 in
17:26 74.3 °F 62.6 °F 30.00 in SE 1.0 mph 4.0 mph 67 % 0.00 in
17:31 73.9 °F 62.8 °F 30.00 in SE 2.0 mph 4.0 mph 68 % 0.00 in
17:36 73.8 °F 63.0 °F 30.00 in South 3.0 mph 5.0 mph 69 % 0.00 in
17:41 73.4 °F 63.0 °F 30.00 in ESE 2.0 mph 6.0 mph 70 % 0.00 in
17:46 73.0 °F 63.1 °F 30.00 in SE 4.0 mph 7.0 mph 71 % 0.00 in
17:51 72.9 °F 63.0 °F 30.01 in SE 3.0 mph 8.0 mph 71 % 0.00 in
17:56 72.7 °F 63.1 °F 30.02 in SE 3.0 mph 8.0 mph 72 % 0.00 in
18:01 72.5 °F 63.0 °F 30.02 in South 1.0 mph 8.0 mph 72 % 0.00 in
18:06 72.3 °F 62.8 °F 30.02 in Calm   6.0 mph 72 % 0.00 in
18:11 72.0 °F 62.8 °F 30.02 in Calm   5.0 mph 73 % 0.00 in
18:16 71.8 °F 62.6 °F 30.02 in Calm   2.0 mph 73 % 0.00 in
18:21 71.4 °F 62.8 °F 30.02 in SE 1.0 mph 2.0 mph 74 % 0.00 in
18:26 71.2 °F 63.0 °F 30.03 in East 2.0 mph 4.0 mph 75 % 0.00 in
18:31 71.1 °F 62.8 °F 30.03 in ESE 1.0 mph 4.0 mph 75 % 0.00 in
18:36 70.9 °F 62.6 °F 30.03 in Calm   4.0 mph 75 % 0.00 in
18:41 70.5 °F 62.6 °F 30.04 in SE 1.0 mph 3.0 mph 76 % 0.00 in
18:46 70.3 °F 62.8 °F 30.04 in SSW 1.0 mph 3.0 mph 77 % 0.00 in
18:51 70.2 °F 62.6 °F 30.04 in Calm   3.0 mph 77 % 0.00 in
18:56 70.0 °F 62.4 °F 30.04 in Calm   3.0 mph 77 % 0.00 in
19:01 69.6 °F 62.4 °F 30.04 in Calm   2.0 mph 78 % 0.00 in
19:06 69.4 °F 62.2 °F 30.04 in Calm   2.0 mph 78 % 0.00 in
19:16 69.1 °F 62.2 °F 30.05 in Calm   2.0 mph 79 % 0.00 in
19:21 68.7 °F 61.9 °F 30.04 in SSE 1.0 mph 2.0 mph 79 % 0.00 in
19:26 68.4 °F 61.9 °F 30.05 in Calm   2.0 mph 80 % 0.00 in
19:36 67.8 °F 61.7 °F 30.05 in Calm   2.0 mph 81 % 0.00 in
19:41 67.6 °F 61.9 °F 30.05 in Calm   1.0 mph 82 % 0.00 in
19:46 67.5 °F 61.7 °F 30.05 in Calm   1.0 mph 82 % 0.00 in
19:51 67.3 °F 61.5 °F 30.06 in Calm   1.0 mph 82 % 0.00 in
19:56 66.9 °F 61.5 °F 30.07 in Calm   2.0 mph 83 % 0.00 in
20:01 66.6 °F 61.5 °F 30.07 in Calm   2.0 mph 84 % 0.00 in
20:06 66.4 °F 61.3 °F 30.08 in Calm   2.0 mph 84 % 0.00 in
20:11 66.4 °F 61.7 °F 30.08 in Calm   2.0 mph 85 % 0.00 in
20:16 66.0 °F 61.3 °F 30.08 in Calm   1.0 mph 85 % 0.00 in
20:27 65.5 °F 61.2 °F 30.08 in Calm   1.0 mph 86 % 0.00 in
20:32 65.1 °F 60.8 °F 30.08 in Calm   1.0 mph 86 % 0.00 in
20:37 64.9 °F 61.0 °F 30.09 in Calm     87 % 0.00 in
20:42 64.8 °F 60.8 °F 30.09 in Calm     87 % 0.00 in
20:47 64.6 °F 60.6 °F 30.09 in Calm     87 % 0.00 in
20:52 64.2 °F 60.6 °F 30.09 in Calm   1.0 mph 88 % 0.00 in
20:57 64.0 °F 60.4 °F 30.09 in Calm   1.0 mph 88 % 0.00 in
21:07 63.7 °F 60.4 °F 30.09 in Calm     89 % 0.00 in
21:12 63.5 °F 60.3 °F 30.09 in Calm   1.0 mph 89 % 0.00 in
21:17 63.3 °F 60.1 °F 30.10 in Calm   1.0 mph 89 % 0.00 in
21:22 63.1 °F 59.9 °F 30.10 in Calm   1.0 mph 89 % 0.00 in
21:27 62.8 °F 59.5 °F 30.10 in Calm     89 % 0.00 in
21:32 62.4 °F 59.4 °F 30.10 in Calm     90 % 0.00 in
21:37 62.2 °F 59.2 °F 30.10 in Calm     90 % 0.00 in
21:42 62.2 °F 59.9 °F 30.11 in Calm   1.0 mph 92 % 0.00 in
21:47 62.2 °F 59.9 °F 30.11 in Calm   1.0 mph 92 % 0.00 in
21:52 62.2 °F 59.5 °F 30.11 in Calm   1.0 mph 91 % 0.00 in
21:57 62.1 °F 59.7 °F 30.11 in Calm     92 % 0.00 in
22:02 61.5 °F 58.8 °F 30.11 in Calm     91 % 0.00 in
22:07 61.3 °F 59.0 °F 30.11 in Calm     92 % 0.00 in
22:12 61.0 °F 58.6 °F 30.11 in Calm     92 % 0.00 in
22:17 61.0 °F 59.0 °F 30.11 in Calm     93 % 0.00 in
22:22 61.0 °F 59.0 °F 30.11 in Calm     93 % 0.00 in
22:27 60.6 °F 58.6 °F 30.11 in Calm     93 % 0.00 in
22:32 60.4 °F 58.5 °F 30.12 in Calm     93 % 0.00 in
22:37 60.1 °F 58.1 °F 30.12 in Calm     93 % 0.00 in
22:42 59.9 °F 57.9 °F 30.12 in Calm     93 % 0.00 in
22:47 59.9 °F 58.1 °F 30.12 in Calm     94 % 0.00 in
22:53 60.1 °F 58.3 °F 30.12 in Calm     94 % 0.00 in
22:58 60.1 °F 58.6 °F 30.13 in Calm     95 % 0.00 in
23:03 60.1 °F 58.6 °F 30.13 in Calm   1.0 mph 95 % 0.00 in
23:08 60.1 °F 58.6 °F 30.12 in Calm   1.0 mph 95 % 0.00 in
23:13 60.1 °F 58.6 °F 30.13 in Calm   1.0 mph 95 % 0.00 in
23:18 60.1 °F 58.6 °F 30.13 in Calm   1.0 mph 95 % 0.00 in
23:23 60.1 °F 58.6 °F 30.13 in Calm   1.0 mph 95 % 0.00 in
23:33 59.7 °F 58.3 °F 30.12 in Calm     95 % 0.00 in
23:38 59.7 °F 58.3 °F 30.12 in Calm     95 % 0.00 in
23:43 59.7 °F 58.3 °F 30.13 in Calm     95 % 0.00 in
23:48 59.5 °F 58.1 °F 30.13 in Calm     95 % 0.00 in
23:58 59.4 °F 58.3 °F 30.13 in Calm     96 % 0.00 in
Spring, Texas: Villages of Bridgestone
Compliments of Weather Underground - 2.75 mb

Script developed by  Jim McMurry - jmcmurry@mwt.net Adapted for the template by  Wim van der Kuil - Leuven-Template.eu

You find our weather info also at:

UK Metoffice

WeatherCloud

Weather Underground

Mid-South Weather Network

AWEKAS

Citizen Weather Observer Program (CWOP)

HAMweather, WeatherForYou, PWS Weather

Equipment we use:

Weather-station
Davis Vantage Vue

Weather-program
Meteohub

Weather-server
Debian 7.9 x86 (Guest)

Provider
DreamHost

Davis Vantage Vue

Meteohub

Debian 7.9 x86 (Guest)

DreamHost